Time;durP1;ratioP1;P1;durP2;ratioP2;P2;SDS_P1;SDS_P2;PMS_P1;PMS_P2;Temp;Humidity;BMP_temperature;BMP_pressure;BME280_temperature;BME280_humidity;BME280_pressure;Samples;Min_cycle;Max_cycle;Signal;HPM_P1;HPM_P2
2022/07/09 00:01:23;;;;;;;9.60;4.72;;;18.10;94.10;;;;;;6182896;23;20383;-84
2022/07/09 00:03:51;;;;;;;5.38;2.90;;;;;;;;;;6184777;23;20020;-85
2022/07/09 00:06:19;;;;;;;5.03;2.85;;;18.00;94.80;;;;;;6205733;23;20005;-83
2022/07/09 00:08:45;;;;;;;6.32;3.10;;;18.00;96.00;;;;;;6205020;23;20013;-83
2022/07/09 00:11:11;;;;;;;5.70;3.45;;;;;;;;;;6180357;23;20012;-82
2022/07/09 00:13:37;;;;;;;8.80;3.53;;;18.00;95.10;;;;;;6181492;23;20024;-84
2022/07/09 00:16:03;;;;;;;13.82;5.90;;;18.00;96.50;;;;;;6206445;23;20016;-83
2022/07/09 00:18:35;;;;;;;6.05;3.10;;;17.20;96.00;;;;;;6180465;23;20032;-85
2022/07/09 00:21:01;;;;;;;5.20;3.05;;;;;;;;;;6180422;23;20005;-80
2022/07/09 00:23:27;;;;;;;5.55;3.17;;;;;;;;;;6180620;23;20001;-81
2022/07/09 00:25:56;;;;;;;4.75;3.15;;;17.80;95.80;;;;;;6180729;23;20009;-83
2022/07/09 00:28:25;;;;;;;4.75;3.13;;;;;;;;;;6185120;23;20005;-81
2022/07/09 00:30:51;;;;;;;14.98;6.57;;;;;;;;;;6181557;23;20005;-83
2022/07/09 00:33:17;;;;;;;12.00;4.93;;;;;;;;;;6205800;23;20076;-83
2022/07/09 00:35:43;;;;;;;21.70;7.30;;;17.70;96.40;;;;;;6180407;23;19993;-83
2022/07/09 00:38:09;;;;;;;9.98;4.30;;;17.90;98.10;;;;;;6205199;23;20016;-83
2022/07/09 00:40:35;;;;;;;7.18;3.60;;;;;;;;;;6205624;23;20025;-84
2022/07/09 00:43:02;;;;;;;5.53;3.28;;;;;;;;;;6177400;23;20005;-83
2022/07/09 00:45:29;;;;;;;5.35;3.10;;;;;;;;;;6176416;23;20060;-82
2022/07/09 00:47:55;;;;;;;5.63;3.10;;;;;;;;;;6176937;23;20005;-84
2022/07/09 00:50:21;;;;;;;6.47;2.72;;;17.50;97.70;;;;;;6177943;23;20017;-82
2022/07/09 00:52:50;;;;;;;16.05;6.82;;;18.70;99.40;;;;;;6176978;23;20001;-83
2022/07/09 00:55:16;;;;;;;6.50;2.97;;;;;;;;;;6180830;23;20064;-82
2022/07/09 00:57:46;;;;;;;6.03;3.03;;;;;;;;;;6177761;23;20016;-83
2022/07/09 01:00:15;;;;;;;5.05;3.47;;;;;;;;;;6179441;23;20001;-83
2022/07/09 01:02:41;;;;;;;6.18;3.10;;;;;;;;;;6206707;23;20009;-82
2022/07/09 01:05:08;;;;;;;4.90;2.70;;;17.30;99.20;;;;;;6181024;23;20100;-83
2022/07/09 01:07:34;;;;;;;4.70;2.75;;;;;;;;;;6183022;23;20005;-83
2022/07/09 01:10:00;;;;;;;8.25;4.25;;;;;;;;;;6206713;23;20134;-83
2022/07/09 01:12:26;;;;;;;8.82;4.45;;;;;;;;;;6179599;23;20009;-85
2022/07/09 01:14:55;;;;;;;6.53;3.17;;;17.20;99.80;;;;;;6180286;23;20001;-82
2022/07/09 01:17:21;;;;;;;7.38;3.03;;;;;;;;;;6179213;23;20039;-82
2022/07/09 01:19:50;;;;;;;9.07;4.30;;;;;;;;;;6180093;23;20011;-82
2022/07/09 01:22:16;;;;;;;6.22;3.55;;;;;;;;;;6183308;23;20011;-82
2022/07/09 01:24:42;;;;;;;11.13;4.60;;;;;;;;;;6183348;23;20003;-82
2022/07/09 01:27:09;;;;;;;11.23;4.93;;;17.00;99.90;;;;;;6207694;23;20009;-83
2022/07/09 01:29:37;;;;;;;9.32;4.53;;;16.90;99.90;;;;;;6208611;23;20005;-84
2022/07/09 01:32:03;;;;;;;7.35;3.70;;;16.50;99.90;;;;;;6208005;23;20037;-83
2022/07/09 01:34:29;;;;;;;6.45;3.08;;;;;;;;;;6207270;23;20031;-83
2022/07/09 01:36:57;;;;;;;4.63;2.90;;;;;;;;;;6207381;23;20005;-84
2022/07/09 01:39:23;;;;;;;5.03;2.70;;;;;;;;;;6179966;23;20009;-84
2022/07/09 01:41:49;;;;;;;5.53;2.78;;;;;;;;;;6207499;23;20429;-82
2022/07/09 01:44:18;;;;;;;5.32;3.38;;;16.80;99.90;;;;;;6182227;23;20005;-82
2022/07/09 01:46:44;;;;;;;5.45;2.88;;;;;;;;;;6208130;23;20015;-82
2022/07/09 01:49:10;;;;;;;5.30;3.20;;;;;;;;;;6206268;23;20001;-83
2022/07/09 01:51:36;;;;;;;5.95;2.90;;;16.60;99.90;;;;;;6205928;23;20005;-82
2022/07/09 01:54:06;;;;;;;6.40;3.25;;;16.60;99.90;;;;;;6207054;23;20009;-82
2022/07/09 01:56:33;;;;;;;4.90;3.30;;;;;;;;;;6181764;23;20005;-83
2022/07/09 01:59:02;;;;;;;10.05;3.50;;;;;;;;;;6182569;23;20008;-84
2022/07/09 02:11:48;;;;;;;6.15;3.47;;;16.40;99.90;;;;;;6197377;23;20101;-83
2022/07/09 02:14:14;;;;;;;5.55;3.80;;;16.30;99.90;;;;;;6205292;23;20004;-83
2022/07/09 02:16:40;;;;;;;6.13;3.13;;;;;;;;;;6204427;23;20013;-81
2022/07/09 02:19:06;;;;;;;6.05;3.30;;;16.40;99.90;;;;;;6221287;23;20005;-82
2022/07/09 02:21:33;;;;;;;7.35;4.00;;;16.40;99.90;;;;;;6232370;23;20352;-84
2022/07/09 02:24:00;;;;;;;8.32;3.17;;;;;;;;;;6182935;23;20012;-84
2022/07/09 02:26:29;;;;;;;7.00;3.55;;;16.30;99.90;;;;;;6206336;23;20004;-82
2022/07/09 02:28:59;;;;;;;4.90;2.97;;;16.20;99.90;;;;;;6232850;23;20004;-82
2022/07/09 02:31:26;;;;;;;7.30;3.22;;;16.20;99.90;;;;;;6208220;23;20020;-84
2022/07/09 02:33:55;;;;;;;5.38;3.15;;;16.20;99.90;;;;;;6207943;23;20035;-83
2022/07/09 02:36:21;;;;;;;5.97;3.05;;;16.40;99.90;;;;;;6208955;23;20009;-82
2022/07/09 02:38:48;;;;;;;7.75;3.47;;;16.10;99.90;;;;;;6233841;23;20027;-82
2022/07/09 02:41:21;;;;;;;6.18;3.50;;;16.10;99.90;;;;;;6205985;23;20009;-83
2022/07/09 02:43:47;;;;;;;6.45;3.50;;;;;;;;;;6203971;23;20003;-82
2022/07/09 02:46:13;;;;;;;30.40;12.82;;;;;;;;;;6206914;23;20012;-83
2022/07/09 02:48:39;;;;;;;8.50;4.70;;;;;;;;;;6204961;23;20004;-82
2022/07/09 02:51:05;;;;;;;6.57;3.55;;;;;;;;;;6202307;23;19997;-82
2022/07/09 02:53:31;;;;;;;10.38;3.33;;;;;;;;;;6205445;23;20005;-83
2022/07/09 02:55:58;;;;;;;4.72;3.40;;;;;;;;;;6207101;23;20005;-81
2022/07/09 02:58:25;;;;;;;6.18;3.75;;;;;;;;;;6234919;23;19993;-80
2022/07/09 03:00:51;;;;;;;17.92;7.70;;;15.80;99.90;;;;;;6209527;23;20012;-83
2022/07/09 03:03:17;;;;;;;8.95;4.38;;;;;;;;;;6207904;23;19997;-82
2022/07/09 03:05:43;;;;;;;4.85;3.25;;;;;;;;;;6208032;23;19997;-82
2022/07/09 03:08:10;;;;;;;6.22;3.72;;;;;;;;;;6206542;23;20056;-81
2022/07/09 03:10:36;;;;;;;5.20;3.20;;;;;;;;;;6233756;23;20005;-82
2022/07/09 03:13:03;;;;;;;9.80;4.88;;;15.70;99.90;;;;;;6183498;23;20001;-83
2022/07/09 03:15:29;;;;;;;5.90;3.22;;;;;;;;;;6208525;23;20022;-81
2022/07/09 03:17:55;;;;;;;11.63;5.15;;;;;;;;;;6207393;23;19996;-82
2022/07/09 03:20:21;;;;;;;9.48;4.55;;;;;;;;;;6231824;23;20051;-82
2022/07/09 03:22:48;;;;;;;8.15;3.72;;;15.70;99.90;;;;;;6204108;23;20064;-82
2022/07/09 03:25:14;;;;;;;6.10;3.17;;;14.70;99.90;;;;;;6230539;23;19996;-81
2022/07/09 03:27:41;;;;;;;6.35;3.60;;;15.60;99.90;;;;;;6227993;23;20051;-82
2022/07/09 03:30:07;;;;;;;19.42;8.48;;;;;;;;;;6231559;23;20011;-83
2022/07/09 03:32:35;;;;;;;4.70;2.88;;;15.60;99.90;;;;;;6204372;23;20001;-82
2022/07/09 03:35:01;;;;;;;4.97;3.03;;;;;;;;;;6230452;23;20001;-82
2022/07/09 03:37:27;;;;;;;7.45;3.88;;;;;;;;;;6230236;23;20031;-81
2022/07/09 03:39:53;;;;;;;4.60;3.35;;;;;;;;;;6178587;23;20004;-82
2022/07/09 03:42:19;;;;;;;5.68;3.08;;;;;;;;;;6204906;23;20005;-81
2022/07/09 03:44:50;;;;;;;5.32;3.10;;;15.60;99.90;;;;;;6206517;23;20000;-81
2022/07/09 03:47:17;;;;;;;5.30;2.88;;;;;;;;;;6232522;23;20011;-83
2022/07/09 03:49:43;;;;;;;7.07;3.10;;;;;;;;;;6234308;23;20058;-80
2022/07/09 03:52:09;;;;;;;6.47;3.10;;;;;;;;;;6238449;23;20071;-82
2022/07/09 03:54:35;;;;;;;5.55;3.13;;;;;;;;;;6206673;23;19997;-82
2022/07/09 03:57:01;;;;;;;5.07;3.00;;;;;;;;;;6206494;23;20001;-82
2022/07/09 03:59:29;;;;;;;5.18;3.50;;;15.50;99.90;;;;;;6205707;23;20008;-81
2022/07/09 04:01:55;;;;;;;6.05;3.30;;;;;;;;;;6234734;23;20036;-82
2022/07/09 04:04:24;;;;;;;4.95;3.40;;;15.50;99.90;;;;;;6207199;23;20020;-81
2022/07/09 04:06:50;;;;;;;6.07;3.20;;;15.50;99.90;;;;;;6207844;23;20458;-82
2022/07/09 04:09:16;;;;;;;5.43;3.42;;;15.60;99.90;;;;;;6231453;23;20004;-82
2022/07/09 04:11:42;;;;;;;5.18;2.60;;;;;;;;;;6232090;23;20007;-82
2022/07/09 04:14:08;;;;;;;5.72;2.97;;;;;;;;;;6207247;23;20012;-82
2022/07/09 04:16:37;;;;;;;5.28;3.15;;;15.60;99.90;;;;;;6206328;23;19996;-82
2022/07/09 04:19:04;;;;;;;5.72;3.17;;;15.70;99.90;;;;;;6206526;23;20125;-80
2022/07/09 04:21:30;;;;;;;6.20;3.17;;;;;;;;;;6233134;23;20004;-84
2022/07/09 04:23:59;;;;;;;4.63;2.90;;;15.70;99.90;;;;;;6209372;23;19992;-85
2022/07/09 04:26:25;;;;;;;5.00;2.70;;;;;;;;;;6214421;23;20068;-81
2022/07/09 04:28:51;;;;;;;7.97;2.95;;;15.80;99.90;;;;;;6212541;23;20000;-83
2022/07/09 04:31:19;;;;;;;5.55;3.00;;;;;;;;;;6211468;23;20024;-81
2022/07/09 04:33:46;;;;;;;7.22;3.25;;;;;;;;;;6238144;23;20004;-82
2022/07/09 04:36:12;;;;;;;8.27;3.53;;;17.30;99.90;;;;;;6236710;23;20016;-81
2022/07/09 04:38:37;;;;;;;5.82;3.30;;;16.00;99.90;;;;;;6209143;23;20000;-82
2022/07/09 04:41:04;;;;;;;5.82;3.53;;;16.10;99.90;;;;;;6235807;23;20001;-82
2022/07/09 04:43:30;;;;;;;4.63;3.40;;;;;;;;;;6209735;23;20421;-83
2022/07/09 04:45:57;;;;;;;6.82;3.22;;;;;;;;;;6209818;23;19997;-82
2022/07/09 04:48:23;;;;;;;6.13;3.20;;;;;;;;;;6206901;23;20024;-83
2022/07/09 04:50:49;;;;;;;6.57;2.92;;;16.30;99.90;;;;;;6207342;23;20009;-83
2022/07/09 04:53:16;;;;;;;7.00;3.30;;;;;;;;;;6236502;23;20066;-84
2022/07/09 04:55:42;;;;;;;6.20;2.97;;;;;;;;;;6215888;23;20031;-84
2022/07/09 04:58:16;;;;;;;7.85;3.05;;;16.30;99.90;;;;;;6242034;23;20120;-84
2022/07/09 05:00:43;;;;;;;6.18;3.97;;;;;;;;;;6240696;23;20016;-84
2022/07/09 05:03:09;;;;;;;4.70;3.05;;;;;;;;;;6241264;23;20028;-83
2022/07/09 05:05:35;;;;;;;5.80;3.20;;;;;;;;;;6242185;23;19996;-85
2022/07/09 05:08:02;;;;;;;6.20;3.30;;;;;;;;;;6241565;23;20019;-83
2022/07/09 05:10:28;;;;;;;4.72;3.17;;;;;;;;;;6241536;23;20024;-83
2022/07/09 05:12:54;;;;;;;6.75;3.45;;;;;;;;;;6213122;23;20004;-83
2022/07/09 05:15:33;;;;;;;5.47;3.08;;;16.50;99.90;;;;;;6210099;23;20001;-83
2022/07/09 05:18:00;;;;;;;5.25;2.85;;;;;;;;;;6234824;23;20007;-82
2022/07/09 05:20:28;;;;;;;5.18;3.00;;;16.70;99.90;;;;;;6210024;23;19996;-83
2022/07/09 05:22:55;;;;;;;4.05;2.97;;;;;;;;;;6240590;23;19988;-84
2022/07/09 05:25:22;;;;;;;5.13;3.47;;;;;;;;;;6242749;23;20008;-84
2022/07/09 05:27:48;;;;;;;6.80;3.10;;;17.00;99.90;;;;;;6216628;23;20068;-82
2022/07/09 05:30:15;;;;;;;6.78;2.85;;;17.50;99.90;;;;;;6241714;23;19984;-85
2022/07/09 05:32:44;;;;;;;5.30;2.90;;;19.30;99.90;;;;;;6216107;23;19985;-83
2022/07/09 05:35:10;;;;;;;6.50;3.63;;;19.30;99.90;;;;;;6242609;23;20035;-85
2022/07/09 05:37:45;;;;;;;5.43;3.13;;;20.20;98.70;;;;;;6241967;23;20008;-85
2022/07/09 05:40:33;;;;;;;6.72;3.13;;;22.90;99.60;;;;;;6216716;23;19997;-81
2022/07/09 05:42:59;;;;;;;5.57;3.17;;;;;;;;;;6234596;23;19989;-84
2022/07/09 05:45:24;;;;;;;5.47;2.30;;;21.50;96.50;;;;;;6213672;23;20000;-86
2022/07/09 05:47:50;;;;;;;4.18;2.53;;;21.80;95.40;;;;;;6238696;23;20035;-88
2022/07/09 05:50:16;;;;;;;4.93;2.50;;;22.10;94.50;;;;;;6237009;23;20350;-85
2022/07/09 05:52:41;;;;;;;3.83;2.85;;;22.00;94.40;;;;;;6238493;23;20035;-86
2022/07/09 05:55:07;;;;;;;5.60;3.05;;;22.00;94.30;;;;;;6212885;23;20008;-85
2022/07/09 05:57:33;;;;;;;7.35;2.70;;;22.80;93.30;;;;;;6209293;23;20005;-83
2022/07/09 05:59:59;;;;;;;7.18;2.50;;;;;;;;;;6238460;23;20004;-85
2022/07/09 06:02:24;;;;;;;7.03;2.72;;;23.00;91.90;;;;;;6207238;23;20095;-84
2022/07/09 06:04:50;;;;;;;8.00;2.83;;;24.30;92.20;;;;;;6228844;23;20024;-83
2022/07/09 06:07:16;;;;;;;4.35;2.50;;;22.90;91.70;;;;;;6223365;23;20003;-84
2022/07/09 06:09:42;;;;;;;7.60;2.60;;;22.60;92.40;;;;;;6226058;23;20072;-83
2022/07/09 06:12:23;;;;;;;6.35;3.03;;;23.30;91.50;;;;;;6238842;23;20001;-83
2022/07/09 06:14:49;;;;;;;8.63;6.50;;;;;;;;;;6240253;23;20064;-80
2022/07/09 06:17:37;;;;;;;7.40;2.55;;;23.20;91.00;;;;;;6163963;23;20005;-81
2022/07/09 06:20:11;;;;;;;7.07;2.40;;;23.10;91.00;;;;;;6241731;23;20081;-83
2022/07/09 06:27:49;;;;;;;5.68;2.40;;;22.80;91.50;;;;;;6231013;23;20012;-83
2022/07/09 06:30:21;;;;;;;5.90;2.00;;;23.30;90.70;;;;;;6201657;23;20008;-84
2022/07/09 06:32:47;;;;;;;4.82;2.28;;;23.30;90.70;;;;;;6189349;23;20001;-85
2022/07/09 06:35:16;;;;;;;6.95;2.70;;;23.20;90.90;;;;;;6160450;23;20016;-85
2022/07/09 06:37:42;;;;;;;6.72;2.60;;;;;;;;;;6159482;23;20009;-83
2022/07/09 06:40:18;;;;;;;4.55;2.25;;;22.40;91.50;;;;;;6166230;23;20016;-82
2022/07/09 06:42:45;;;;;;;6.55;2.30;;;;;;;;;;6208940;23;20005;-83
2022/07/09 06:45:16;;;;;;;4.00;2.20;;;21.90;92.60;;;;;;6197332;23;20016;-84
2022/07/09 06:47:42;;;;;;;4.85;2.20;;;;;;;;;;6165460;23;20008;-82
2022/07/09 06:50:08;;;;;;;8.70;2.33;;;;;;;;;;6163204;23;20009;-83
2022/07/09 06:52:34;;;;;;;4.30;2.70;;;21.90;92.70;;;;;;6165779;23;20001;-83
2022/07/09 06:55:00;;;;;;;4.95;2.40;;;21.60;93.40;;;;;;6186850;23;20001;-83
2022/07/09 06:57:26;;;;;;;6.80;3.28;;;;;;;;;;6183115;23;20024;-84
2022/07/09 06:59:52;;;;;;;7.50;2.60;;;;;;;;;;6156820;23;20009;-84
2022/07/09 07:02:18;;;;;;;7.07;2.63;;;;;;;;;;6159484;23;20088;-85
2022/07/09 07:04:45;;;;;;;6.18;2.35;;;;;;;;;;6161418;23;20009;-82
2022/07/09 07:07:11;;;;;;;5.88;2.42;;;;;;;;;;6163950;23;20001;-86
2022/07/09 07:09:43;;;;;;;7.13;2.60;;;21.60;93.90;;;;;;6162769;23;20003;-85
2022/07/09 07:12:12;;;;;;;6.18;2.45;;;21.50;94.20;;;;;;6191746;23;20006;-84
2022/07/09 07:14:40;;;;;;;8.85;2.60;;;21.50;94.10;;;;;;6164374;23;20020;-85
2022/07/09 07:17:09;;;;;;;8.23;2.40;;;22.00;94.60;;;;;;6161523;23;20020;-85
2022/07/09 07:19:35;;;;;;;5.40;2.40;;;;;;;;;;6158106;23;20001;-83
2022/07/09 07:22:01;;;;;;;4.85;2.70;;;21.60;93.80;;;;;;6160229;23;20001;-83
2022/07/09 07:24:27;;;;;;;6.05;2.40;;;;;;;;;;6187328;23;20032;-85
2022/07/09 07:26:56;;;;;;;5.78;2.30;;;21.90;93.50;;;;;;6163115;23;20012;-84
2022/07/09 07:29:31;;;;;;;5.05;2.63;;;21.30;93.80;;;;;;6185112;23;20005;-83
2022/07/09 07:32:07;;;;;;;7.00;2.58;;;22.20;94.00;;;;;;6164784;23;20498;-85
2022/07/09 07:34:38;;;;;;;4.38;2.25;;;22.00;93.80;;;;;;6161979;23;20005;-83
2022/07/09 07:37:50;;;;;;;6.18;2.50;;;22.30;94.10;;;;;;6187901;23;20005;-84
2022/07/09 07:40:45;;;;;;;;;;;;;;;;;;;;;
2022/07/09 07:43:42;;;;;;;7.05;2.42;;;22.50;92.90;;;;;;6093070;23;20034;-84
2022/07/09 07:46:19;;;;;;;6.45;2.13;;;22.50;93.70;;;;;;6081329;23;20096;-83
2022/07/09 07:48:48;;;;;;;7.10;2.65;;;22.70;92.90;;;;;;6188808;23;20020;-84
2022/07/09 07:51:30;;;;;;;5.00;2.58;;;22.90;94.00;;;;;;6196907;23;20143;-83
2022/07/09 07:53:59;;;;;;;5.75;2.35;;;;;;;;;;6179729;23;20080;-82
2022/07/09 07:56:45;;;;;;;7.90;2.15;;;22.90;92.40;;;;;;6183452;23;20058;-82
2022/07/09 07:59:16;;;;;;;5.40;2.53;;;22.80;92.80;;;;;;6206567;23;20009;-81
2022/07/09 08:01:42;;;;;;;5.85;2.40;;;22.90;92.20;;;;;;6206727;23;20061;-84
2022/07/09 08:04:08;;;;;;;5.68;2.53;;;22.90;91.90;;;;;;6169144;23;20016;-86
2022/07/09 08:06:35;;;;;;;7.53;2.45;;;23.10;91.80;;;;;;6185388;23;20012;-84
2022/07/09 08:09:03;;;;;;;8.65;2.83;;;23.20;91.40;;;;;;6183911;23;20041;-84
2022/07/09 08:11:34;;;;;;;6.22;2.33;;;23.20;91.30;;;;;;6185621;23;20033;-85
2022/07/09 08:14:00;;;;;;;6.38;2.50;;;23.00;91.00;;;;;;6159845;23;20001;-85
2022/07/09 08:16:26;;;;;;;6.22;2.17;;;23.20;91.40;;;;;;6162031;23;20012;-85
2022/07/09 08:18:52;;;;;;;5.90;2.00;;;23.20;91.00;;;;;;6187440;23;20395;-83
2022/07/09 08:21:17;;;;;;;6.85;1.98;;;23.30;91.20;;;;;;6188364;23;20086;-82
2022/07/09 08:23:53;;;;;;;4.78;1.80;;;23.40;90.50;;;;;;6185234;23;20084;-84
2022/07/09 08:26:26;;;;;;;5.72;2.00;;;23.50;90.30;;;;;;6186294;23;20355;-84
2022/07/09 08:28:53;;;;;;;4.35;1.83;;;23.60;90.20;;;;;;6159368;23;20005;-83
2022/07/09 08:31:19;;;;;;;8.55;2.13;;;23.60;90.20;;;;;;6158758;23;20013;-84
2022/07/09 08:33:46;;;;;;;5.47;2.20;;;23.60;90.10;;;;;;6187904;23;20005;-87
2022/07/09 08:36:12;;;;;;;7.22;2.28;;;;;;;;;;6184594;23;20336;-88
2022/07/09 08:38:38;;;;;;;4.93;2.33;;;23.60;89.40;;;;;;6159107;23;20005;-84
2022/07/09 08:41:08;;;;;;;4.40;2.00;;;23.80;90.20;;;;;;6159915;23;20088;-83
2022/07/09 08:43:38;;;;;;;5.22;2.20;;;23.90;90.10;;;;;;6157293;23;20088;-84
2022/07/09 08:46:05;;;;;;;3.47;1.75;;;23.90;89.10;;;;;;6184645;23;20029;-85
2022/07/09 08:50:10;;;;;;;5.35;2.17;;;24.20;89.30;;;;;;6156778;23;20502;-85
2022/07/09 08:52:37;;;;;;;6.38;2.53;;;24.40;88.90;;;;;;6156667;23;20005;-85
2022/07/09 08:55:39;;;;;;;8.10;2.25;;;24.70;87.50;;;;;;6182107;23;20008;-84
2022/07/09 08:58:08;;;;;;;7.20;2.00;;;;;;;;;;6173599;23;20013;-84
2022/07/09 09:00:43;;;;;;;4.30;2.00;;;24.90;86.00;;;;;;6160974;23;20021;-86
2022/07/09 09:03:48;;;;;;;6.45;2.13;;;24.50;85.90;;;;;;6174316;23;20052;-86
2022/07/09 09:06:31;;;;;;;5.47;1.80;;;24.50;87.50;;;;;;6187986;23;20392;-87
2022/07/09 09:09:07;;;;;;;3.95;1.80;;;24.70;86.20;;;;;;6161826;23;20016;-85
2022/07/09 09:11:58;;;;;;;2.72;1.80;;;25.60;87.20;;;;;;6163151;23;20096;-86
2022/07/09 09:14:52;;;;;;;4.38;1.85;;;24.90;85.30;;;;;;6187684;23;20012;-85
2022/07/09 09:17:32;;;;;;;3.10;1.80;;;24.70;85.50;;;;;;6187323;23;20021;-85
2022/07/09 09:20:17;;;;;;;4.15;1.98;;;24.70;87.20;;;;;;6160041;23;20012;-85
2022/07/09 09:25:18;;;;;;;6.05;2.00;;;24.50;85.80;;;;;;6186172;23;20071;-83
2022/07/09 09:28:02;;;;;;;4.30;1.77;;;24.20;84.40;;;;;;6192594;23;20024;-83
2022/07/09 09:30:30;;;;;;;6.20;2.13;;;24.40;84.60;;;;;;6211595;23;20038;-84
2022/07/09 09:33:00;;;;;;;5.22;2.17;;;24.60;84.80;;;;;;6188676;23;20005;-83
2022/07/09 09:35:27;;;;;;;4.38;1.77;;;24.90;83.10;;;;;;6214685;23;20349;-88
2022/07/09 09:37:54;;;;;;;3.70;1.90;;;25.10;82.10;;;;;;6215547;23;20012;-83
2022/07/09 09:40:19;;;;;;;4.72;2.33;;;25.10;81.70;;;;;;6215476;23;20721;-82
2022/07/09 09:42:46;;;;;;;3.88;1.50;;;25.10;83.10;;;;;;6214850;23;20004;-82
2022/07/09 09:45:15;;;;;;;3.08;1.80;;;25.10;82.50;;;;;;6189488;23;20100;-83
2022/07/09 09:47:44;;;;;;;2.33;1.55;;;25.10;81.70;;;;;;6215817;23;20004;-85
2022/07/09 09:50:13;;;;;;;4.43;1.65;;;25.10;81.40;;;;;;6185649;23;20008;-82
2022/07/09 09:52:40;;;;;;;6.10;1.77;;;25.10;81.70;;;;;;6213924;23;20076;-83
2022/07/09 09:55:07;;;;;;;5.20;1.70;;;25.30;81.00;;;;;;6214842;23;20008;-82
2022/07/09 09:57:34;;;;;;;3.40;1.60;;;25.30;79.10;;;;;;6189691;23;20008;-81
2022/07/09 10:00:00;;;;;;;4.00;1.70;;;25.50;79.50;;;;;;6186859;23;20008;-84
2022/07/09 10:02:28;;;;;;;5.35;3.45;;;25.80;78.60;;;;;;6215014;23;19996;-84
2022/07/09 10:04:55;;;;;;;5.50;1.50;;;26.00;78.10;;;;;;6188822;23;20012;-82
2022/07/09 10:07:20;;;;;;;4.82;1.67;;;26.00;76.70;;;;;;6189262;23;20066;-80
2022/07/09 10:09:58;;;;;;;3.28;1.67;;;26.00;77.10;;;;;;6189225;23;20005;-82
2022/07/09 10:12:32;;;;;;;4.47;1.85;;;26.20;77.50;;;;;;6187982;23;20004;-85
2022/07/09 10:14:59;;;;;;;4.05;2.05;;;26.30;77.20;;;;;;6187335;23;20471;-81
2022/07/09 10:17:26;;;;;;;5.53;3.05;;;26.00;77.00;;;;;;6185304;23;20011;-81
2022/07/09 10:19:53;;;;;;;7.35;1.90;;;26.00;77.40;;;;;;6185840;23;20054;-82
2022/07/09 10:22:43;;;;;;;2.92;1.60;;;25.70;77.70;;;;;;6214293;23;20004;-81
2022/07/09 10:25:10;;;;;;;4.25;1.55;;;24.90;77.60;;;;;;6187095;23;20620;-81
2022/07/09 10:27:47;;;;;;;6.70;1.60;;;26.00;77.10;;;;;;6187087;23;20062;-82
2022/07/09 10:30:32;;;;;;;3.25;1.50;;;26.00;77.40;;;;;;6186372;23;20400;-82
2022/07/09 10:33:08;;;;;;;3.45;1.67;;;26.30;76.60;;;;;;6186138;23;20016;-82
2022/07/09 10:35:45;;;;;;;4.13;1.80;;;26.40;76.20;;;;;;6215321;23;20001;-83
2022/07/09 10:38:11;;;;;;;5.20;2.10;;;26.30;76.20;;;;;;6187104;23;20108;-82
2022/07/09 10:40:48;;;;;;;5.65;2.13;;;26.20;76.60;;;;;;6213855;23;20020;-80
2022/07/09 10:43:14;;;;;;;3.50;1.77;;;26.00;76.70;;;;;;6188989;23;20080;-82
2022/07/09 10:45:42;;;;;;;4.90;1.77;;;26.10;76.10;;;;;;6214725;23;20017;-82
2022/07/09 10:48:09;;;;;;;3.25;1.40;;;26.40;75.50;;;;;;6187295;23;20008;-83
2022/07/09 10:50:48;;;;;;;5.13;1.65;;;26.60;75.40;;;;;;6187129;23;20079;-82
2022/07/09 10:53:14;;;;;;;4.93;1.52;;;26.80;73.80;;;;;;6189593;23;20001;-84
2022/07/09 10:55:45;;;;;;;3.42;1.58;;;27.00;73.60;;;;;;6218241;23;20359;-82
2022/07/09 10:58:21;;;;;;;5.45;1.50;;;27.10;73.90;;;;;;6192195;23;20239;-82
2022/07/09 11:00:58;;;;;;;3.38;1.40;;;27.30;73.20;;;;;;6191070;23;20011;-80
2022/07/09 11:03:31;;;;;;;4.38;1.63;;;27.20;72.80;;;;;;6191754;23;20088;-81
2022/07/09 11:05:58;;;;;;;2.92;1.13;;;27.30;72.90;;;;;;6192992;23;20000;-83
2022/07/09 11:08:24;;;;;;;3.33;1.40;;;27.40;71.00;;;;;;6190518;23;20004;-81
2022/07/09 11:10:49;;;;;;;5.07;2.88;;;27.70;72.00;;;;;;6216911;23;20464;-86
2022/07/09 11:13:15;;;;;;;4.70;2.00;;;27.80;72.30;;;;;;6218349;23;20005;-83
2022/07/09 11:15:41;;;;;;;4.15;1.48;;;27.60;72.80;;;;;;6218920;23;20011;-83
2022/07/09 11:18:11;;;;;;;3.08;1.33;;;27.40;72.70;;;;;;6214204;23;20325;-84
2022/07/09 11:20:45;;;;;;;2.88;1.38;;;27.30;72.40;;;;;;6189951;23;20376;-82
2022/07/09 11:23:17;;;;;;;3.05;1.60;;;27.40;72.00;;;;;;6216020;23;20736;-82
2022/07/09 11:25:44;;;;;;;2.95;1.50;;;27.40;72.00;;;;;;6212714;23;20318;-82
2022/07/09 11:28:19;;;;;;;5.85;1.45;;;27.30;71.40;;;;;;6189894;23;20040;-82
2022/07/09 11:30:45;;;;;;;5.30;1.60;;;27.30;72.10;;;;;;6215922;23;20005;-83
2022/07/09 11:33:13;;;;;;;5.10;1.40;;;27.20;71.90;;;;;;6215751;23;20015;-83
2022/07/09 11:35:44;;;;;;;2.85;1.30;;;27.20;71.50;;;;;;6188958;23;20051;-79
2022/07/09 11:38:10;;;;;;;3.88;1.50;;;27.30;71.90;;;;;;6215857;23;20000;-81
2022/07/09 11:40:36;;;;;;;3.10;1.30;;;;;;;;;;6216712;23;20000;-83
2022/07/09 11:43:02;;;;;;;3.47;1.40;;;27.70;69.60;;;;;;6191739;23;20004;-82
2022/07/09 11:45:29;;;;;;;1.85;1.10;;;27.90;69.10;;;;;;6219480;23;20001;-81
2022/07/09 11:48:06;;;;;;;7.95;1.30;;;27.80;70.60;;;;;;6219710;23;20004;-81
2022/07/09 11:50:33;;;;;;;4.68;1.35;;;27.80;69.20;;;;;;6217209;23;20001;-82
2022/07/09 11:52:59;;;;;;;3.60;1.48;;;27.90;68.70;;;;;;6217239;23;20038;-83
2022/07/09 11:55:35;;;;;;;6.43;2.13;;;28.00;68.40;;;;;;6219887;23;20005;-80
2022/07/09 11:58:08;;;;;;;3.70;1.73;;;28.10;66.20;;;;;;6194174;23;20429;-85
2022/07/09 12:00:39;;;;;;;4.47;1.58;;;27.90;67.00;;;;;;6220378;23;20008;-86
2022/07/09 12:03:05;;;;;;;5.65;1.20;;;27.90;67.10;;;;;;6195841;23;20016;-86
2022/07/09 12:05:35;;;;;;;2.30;1.30;;;27.90;66.50;;;;;;6221672;23;20316;-85
2022/07/09 12:08:05;;;;;;;3.13;1.20;;;28.10;66.10;;;;;;6225193;23;20009;-85
2022/07/09 12:10:32;;;;;;;;;;;28.10;65.80;;;;;;6194904;23;20097;-85
2022/07/09 12:12:59;;;;;;;3.00;1.00;;;28.10;66.30;;;;;;6219369;23;19899;-86
2022/07/09 12:15:25;;;;;;;7.38;1.63;;;28.10;66.10;;;;;;6194029;23;20055;-86
2022/07/09 12:17:52;;;;;;;2.75;0.98;;;28.00;66.70;;;;;;6221179;23;20019;-87
2022/07/09 12:20:18;;;;;;;2.35;1.30;;;27.80;67.10;;;;;;6195691;23;20009;-85
2022/07/09 12:22:44;;;;;;;3.08;1.20;;;26.40;66.20;;;;;;6217909;23;20031;-83
2022/07/09 12:25:10;;;;;;;2.67;1.00;;;27.40;68.00;;;;;;6221167;23;20013;-84
2022/07/09 12:27:35;;;;;;;5.60;1.70;;;27.10;67.80;;;;;;6220162;23;20091;-85
2022/07/09 12:30:01;;;;;;;3.13;1.33;;;27.10;68.60;;;;;;6194418;23;20005;-85
2022/07/09 12:32:27;;;;;;;4.50;1.35;;;27.20;68.30;;;;;;6222838;23;20009;-85
2022/07/09 12:34:53;;;;;;;3.65;1.13;;;27.40;68.30;;;;;;6221763;23;20047;-84
2022/07/09 12:37:18;;;;;;;2.72;1.40;;;27.50;67.40;;;;;;6222417;23;20063;-84
2022/07/09 12:39:44;;;;;;;3.17;1.75;;;27.80;67.60;;;;;;6219830;23;20064;-85
2022/07/09 12:42:09;;;;;;;7.63;1.15;;;28.10;66.20;;;;;;6228174;23;20020;-85
2022/07/09 12:44:35;;;;;;;4.13;1.15;;;28.10;65.70;;;;;;6231845;23;20088;-84
2022/07/09 12:47:01;;;;;;;2.53;0.93;;;28.00;66.10;;;;;;6232840;23;20046;-86
2022/07/09 12:49:27;;;;;;;2.75;1.55;;;27.80;66.70;;;;;;6230842;23;20104;-85
2022/07/09 12:51:52;;;;;;;6.55;4.32;;;27.50;67.70;;;;;;6201874;23;20088;-85
2022/07/09 12:54:18;;;;;;;9.40;3.80;;;27.50;67.30;;;;;;6224759;23;20001;-84
2022/07/09 12:56:44;;;;;;;4.13;1.50;;;27.50;68.00;;;;;;6219477;23;20769;-85
2022/07/09 12:59:09;;;;;;;4.85;1.63;;;27.60;67.80;;;;;;6215446;23;20433;-84
2022/07/09 13:01:35;;;;;;;2.85;1.50;;;27.80;67.20;;;;;;6218491;23;20104;-85
2022/07/09 13:04:01;;;;;;;3.42;1.30;;;27.90;66.60;;;;;;6219850;23;19993;-85
2022/07/09 13:06:32;;;;;;;2.65;1.15;;;27.80;67.20;;;;;;6218331;23;20105;-83
2022/07/09 13:08:59;;;;;;;3.40;1.90;;;27.70;66.70;;;;;;6218288;23;20004;-86
2022/07/09 13:11:25;;;;;;;5.72;2.67;;;27.70;67.30;;;;;;6194050;23;20035;-86
2022/07/09 13:13:50;;;;;;;3.17;1.42;;;27.50;67.40;;;;;;6219515;23;20012;-85
2022/07/09 13:16:16;;;;;;;4.65;1.40;;;27.60;67.80;;;;;;6218100;23;20000;-86
2022/07/09 13:18:42;;;;;;;4.50;1.50;;;27.50;66.70;;;;;;6217732;23;20012;-86
2022/07/09 13:21:09;;;;;;;3.35;1.58;;;27.40;67.40;;;;;;6218843;23;20087;-85
2022/07/09 13:23:34;;;;;;;3.03;1.30;;;27.30;66.70;;;;;;6193969;23;20004;-85
2022/07/09 13:26:00;;;;;;;2.10;1.17;;;27.20;66.40;;;;;;6217261;23;20035;-85
2022/07/09 13:28:26;;;;;;;2.35;1.25;;;27.10;66.90;;;;;;6218344;23;20004;-85
2022/07/09 13:30:52;;;;;;;3.28;1.30;;;27.00;67.60;;;;;;6217100;23;20000;-85
2022/07/09 13:33:17;;;;;;;1.98;1.10;;;26.90;68.40;;;;;;6194159;23;20005;-85
2022/07/09 13:35:43;;;;;;;4.50;1.30;;;27.10;67.80;;;;;;6194062;23;20052;-84
2022/07/09 13:38:09;;;;;;;2.80;1.83;;;27.30;67.20;;;;;;6187351;23;20032;-85
2022/07/09 13:40:35;;;;;;;3.17;0.90;;;27.60;65.80;;;;;;6217447;23;20019;-87
2022/07/09 13:43:01;;;;;;;2.45;1.40;;;27.80;64.40;;;;;;6218596;23;19997;-86
2022/07/09 13:45:28;;;;;;;1.70;1.10;;;27.70;65.50;;;;;;6218085;23;19993;-86